Home > Products > Valid Products > MTR

000
SAUS45 KTWC 190657
MTRSAD
METAR KSAD 190651Z AUTO 09006KT 10SM CLR 14/08 A2999 RMK AO2 SLP121
T01390078 402610133





000
SAUS45 KTWC 190454
MTRSAD
METAR KSAD 190451Z AUTO 10007KT 10SM CLR 14/07 A3000 RMK AO2 SLP125
T01390072





000
SAUS45 KTWC 190352
MTRSAD
METAR KSAD 190351Z AUTO 17006KT 10SM CLR 16/08 A3001 RMK AO2 SLP127
T01610078





000
SAUS45 KTWC 190253
MTRSAD
METAR KSAD 190251Z AUTO 14006KT 10SM CLR 17/08 A3000 RMK AO2 SLP125
60000 T01720078 50003





000
SAUS45 KTWC 181452
MTRSAD
METAR KSAD 181451Z AUTO 15008KT 10SM CLR 19/M04 A3001 RMK AO2 SLP120
T01891044 53021





000
SAUS45 KTWC 180653
MTRSAD
METAR KSAD 180651Z AUTO 00000KT 10SM CLR 19/M12 A2993 RMK AO2 SLP091
T01891122 403110100





000
SAUS45 KTWC 180552
MTRSAD
METAR KSAD 180551Z AUTO 11006KT 10SM CLR 20/M12 A2993 RMK AO2 SLP089
T02001122 10300 20200 51010





000
SAUS45 KTWC 180453
MTRSAD
METAR KSAD 180451Z AUTO 10006KT 10SM CLR 21/M14 A2993 RMK AO2 SLP090
T02111139





000
SAUS45 KTWC 180353
MTRSAD
METAR KSAD 180351Z AUTO 12006KT 10SM CLR 22/M13 A2992 RMK AO2 SLP089
T02221128





000
SAUS45 KTWC 180253
MTRSAD
METAR KSAD 180251Z AUTO 11006KT 10SM CLR 23/M14 A2989 RMK AO2 SLP085
T02281144 53004





000
SAUS45 KTWC 171454
MTRSAD
METAR KSAD 171451Z AUTO 00000KT 10SM CLR 16/M13 A3000 RMK AO2 SLP123
T01611133 52020





000
SAUS45 KTWC 171155
MTRSAD
METAR KSAD 171151Z AUTO 04004KT 10SM CLR 10/M16 A2994 RMK AO2 SLP100
T01001161 10178 20100 53019





000
SAUS45 KTWC 170755
MTRSAD
METAR KSAD 170751Z AUTO 01004KT 10SM CLR 16/M16 A2987 RMK AO2 SLP073
T01561156





000
SAUS45 KTWC 170655
MTRSAD
METAR KSAD 170651Z AUTO 33007KT 10SM CLR 16/M17 A2986 RMK AO2 SLP069
T01611167 403060056





000
SAUS45 KTWC 170555
MTRSAD
METAR KSAD 170551Z AUTO 35008KT 10SM CLR 17/M17 A2985 RMK AO2 SLP066
T01721167 10294 20161 51017





000
SAUS45 KTWC 170456
MTRSAD
METAR KSAD 170451Z AUTO 29008KT 10SM CLR 18/M17 A2983 RMK AO2 SLP064
T01781167





000
SAUS45 KTWC 170355
MTRSAD
METAR KSAD 170351Z AUTO 32010KT 10SM CLR 19/M17 A2982 RMK AO2 SLP060
T01941172





000
SAUS45 KTWC 170255
MTRSAD
METAR KSAD 170251Z AUTO 31011KT 10SM CLR 23/M17 A2979 RMK AO2 SLP049
T02281172 53021





    US Dept of Commerce
    National Oceanic and Atmospheric Administration
    National Weather Service
    1325 East West Highway
    Silver Spring, MD 20910
    Page Author: NWS Internet Services Team
Disclaimer
Information Quality
Credits
Glossary
Privacy Policy
Freedom of Information Act (FOIA)
About Us
Career Opportunities